sensor_id;sensor_type;location;lat;lon;timestamp;P1;durP1;ratioP1;P2;durP2;ratioP2
35326;SDS011;21436;52.348;20.928;2022-09-28T00:00:02;42.95;;;26.58;;
35326;SDS011;21436;52.348;20.928;2022-09-28T00:02:58;42.03;;;27.27;;
35326;SDS011;21436;52.348;20.928;2022-09-28T00:05:28;42.80;;;26.40;;
35326;SDS011;21436;52.348;20.928;2022-09-28T00:07:58;43.15;;;25.27;;
35326;SDS011;21436;52.348;20.928;2022-09-28T00:10:28;40.70;;;25.17;;
35326;SDS011;21436;52.348;20.928;2022-09-28T00:12:57;44.22;;;27.50;;
35326;SDS011;21436;52.348;20.928;2022-09-28T00:15:28;42.17;;;26.67;;
35326;SDS011;21436;52.348;20.928;2022-09-28T00:17:56;49.90;;;30.23;;
35326;SDS011;21436;52.348;20.928;2022-09-28T00:20:25;48.30;;;28.90;;
35326;SDS011;21436;52.348;20.928;2022-09-28T00:22:54;49.72;;;30.20;;
35326;SDS011;21436;52.348;20.928;2022-09-28T00:25:23;47.65;;;29.00;;
35326;SDS011;21436;52.348;20.928;2022-09-28T00:27:51;46.35;;;27.75;;
35326;SDS011;21436;52.348;20.928;2022-09-28T00:30:21;44.45;;;28.00;;
35326;SDS011;21436;52.348;20.928;2022-09-28T00:32:51;40.88;;;24.20;;
35326;SDS011;21436;52.348;20.928;2022-09-28T00:35:21;38.78;;;23.40;;
35326;SDS011;21436;52.348;20.928;2022-09-28T00:37:51;41.53;;;24.10;;
35326;SDS011;21436;52.348;20.928;2022-09-28T00:40:19;31.25;;;19.73;;
35326;SDS011;21436;52.348;20.928;2022-09-28T00:42:49;30.13;;;19.25;;
35326;SDS011;21436;52.348;20.928;2022-09-28T00:45:20;25.73;;;15.88;;
35326;SDS011;21436;52.348;20.928;2022-09-28T00:47:52;15.70;;;9.85;;
35326;SDS011;21436;52.348;20.928;2022-09-28T00:50:28;11.43;;;6.13;;
35326;SDS011;21436;52.348;20.928;2022-09-28T00:55:55;8.45;;;5.88;;
35326;SDS011;21436;52.348;20.928;2022-09-28T00:58:28;11.95;;;5.88;;
35326;SDS011;21436;52.348;20.928;2022-09-28T01:03:30;7.72;;;5.30;;
35326;SDS011;21436;52.348;20.928;2022-09-28T01:06:02;8.05;;;5.07;;
35326;SDS011;21436;52.348;20.928;2022-09-28T01:08:32;7.20;;;4.95;;
35326;SDS011;21436;52.348;20.928;2022-09-28T01:11:02;7.47;;;3.90;;
35326;SDS011;21436;52.348;20.928;2022-09-28T01:13:33;7.65;;;4.22;;
35326;SDS011;21436;52.348;20.928;2022-09-28T01:22:26;4.90;;;3.00;;
35326;SDS011;21436;52.348;20.928;2022-09-28T01:30:14;4.82;;;3.00;;
35326;SDS011;21436;52.348;20.928;2022-09-28T01:41:09;5.00;;;2.88;;
35326;SDS011;21436;52.348;20.928;2022-09-28T01:43:39;5.85;;;3.17;;
35326;SDS011;21436;52.348;20.928;2022-09-28T01:46:13;4.63;;;2.70;;
35326;SDS011;21436;52.348;20.928;2022-09-28T01:48:49;4.30;;;2.83;;
35326;SDS011;21436;52.348;20.928;2022-09-28T01:51:30;7.18;;;2.67;;
35326;SDS011;21436;52.348;20.928;2022-09-28T01:54:11;6.07;;;3.20;;
35326;SDS011;21436;52.348;20.928;2022-09-28T01:56:45;5.00;;;2.78;;
35326;SDS011;21436;52.348;20.928;2022-09-28T01:59:21;6.15;;;2.22;;
35326;SDS011;21436;52.348;20.928;2022-09-28T02:01:57;4.68;;;2.40;;
35326;SDS011;21436;52.348;20.928;2022-09-28T02:04:59;3.85;;;2.28;;
35326;SDS011;21436;52.348;20.928;2022-09-28T02:07:40;4.07;;;2.75;;
35326;SDS011;21436;52.348;20.928;2022-09-28T02:10:43;4.65;;;2.25;;
35326;SDS011;21436;52.348;20.928;2022-09-28T02:16:00;2.50;;;1.90;;
35326;SDS011;21436;52.348;20.928;2022-09-28T02:18:33;8.07;;;2.72;;
35326;SDS011;21436;52.348;20.928;2022-09-28T02:21:08;6.47;;;2.50;;
35326;SDS011;21436;52.348;20.928;2022-09-28T02:23:40;3.65;;;2.15;;
35326;SDS011;21436;52.348;20.928;2022-09-28T02:26:28;3.65;;;1.80;;
35326;SDS011;21436;52.348;20.928;2022-09-28T02:29:00;5.68;;;2.70;;
35326;SDS011;21436;52.348;20.928;2022-09-28T02:31:29;2.72;;;2.03;;
35326;SDS011;21436;52.348;20.928;2022-09-28T02:34:00;5.65;;;2.70;;
35326;SDS011;21436;52.348;20.928;2022-09-28T02:36:31;3.58;;;2.22;;
35326;SDS011;21436;52.348;20.928;2022-09-28T02:39:00;6.07;;;2.50;;
35326;SDS011;21436;52.348;20.928;2022-09-28T02:44:34;5.20;;;2.58;;
35326;SDS011;21436;52.348;20.928;2022-09-28T02:52:50;5.88;;;2.90;;
35326;SDS011;21436;52.348;20.928;2022-09-28T02:58:33;4.63;;;3.03;;
35326;SDS011;21436;52.348;20.928;2022-09-28T03:04:48;5.80;;;3.55;;
35326;SDS011;21436;52.348;20.928;2022-09-28T03:12:45;7.10;;;4.22;;
35326;SDS011;21436;52.348;20.928;2022-09-28T03:17:47;7.10;;;4.55;;
35326;SDS011;21436;52.348;20.928;2022-09-28T03:20:16;8.40;;;4.43;;
35326;SDS011;21436;52.348;20.928;2022-09-28T03:22:44;7.03;;;4.45;;
35326;SDS011;21436;52.348;20.928;2022-09-28T03:25:33;8.38;;;5.10;;
35326;SDS011;21436;52.348;20.928;2022-09-28T03:28:02;7.95;;;5.55;;
35326;SDS011;21436;52.348;20.928;2022-09-28T03:30:34;9.25;;;5.43;;
35326;SDS011;21436;52.348;20.928;2022-09-28T03:33:03;8.70;;;5.70;;
35326;SDS011;21436;52.348;20.928;2022-09-28T03:35:33;12.30;;;5.90;;
35326;SDS011;21436;52.348;20.928;2022-09-28T03:38:02;9.15;;;5.57;;
35326;SDS011;21436;52.348;20.928;2022-09-28T03:40:32;10.45;;;6.85;;
35326;SDS011;21436;52.348;20.928;2022-09-28T03:43:01;10.10;;;6.18;;
35326;SDS011;21436;52.348;20.928;2022-09-28T03:45:29;11.10;;;7.03;;
35326;SDS011;21436;52.348;20.928;2022-09-28T03:47:58;16.00;;;8.15;;
35326;SDS011;21436;52.348;20.928;2022-09-28T03:50:27;15.25;;;7.85;;
35326;SDS011;21436;52.348;20.928;2022-09-28T03:53:00;14.45;;;8.13;;
35326;SDS011;21436;52.348;20.928;2022-09-28T03:55:29;13.23;;;8.68;;
35326;SDS011;21436;52.348;20.928;2022-09-28T03:57:58;17.95;;;10.05;;
35326;SDS011;21436;52.348;20.928;2022-09-28T04:00:26;17.55;;;10.07;;
35326;SDS011;21436;52.348;20.928;2022-09-28T04:02:54;17.23;;;9.82;;
35326;SDS011;21436;52.348;20.928;2022-09-28T04:05:23;18.08;;;10.48;;
35326;SDS011;21436;52.348;20.928;2022-09-28T04:07:52;19.13;;;10.63;;
35326;SDS011;21436;52.348;20.928;2022-09-28T04:10:23;19.35;;;11.65;;
35326;SDS011;21436;52.348;20.928;2022-09-28T04:12:53;19.08;;;10.65;;
35326;SDS011;21436;52.348;20.928;2022-09-28T04:15:23;19.67;;;12.05;;
35326;SDS011;21436;52.348;20.928;2022-09-28T04:17:51;20.83;;;12.07;;
35326;SDS011;21436;52.348;20.928;2022-09-28T04:21:04;23.48;;;13.35;;
35326;SDS011;21436;52.348;20.928;2022-09-28T04:23:38;23.95;;;13.95;;
35326;SDS011;21436;52.348;20.928;2022-09-28T04:26:17;26.85;;;14.73;;
35326;SDS011;21436;52.348;20.928;2022-09-28T04:28:47;28.60;;;15.55;;
35326;SDS011;21436;52.348;20.928;2022-09-28T04:31:38;25.52;;;14.80;;
35326;SDS011;21436;52.348;20.928;2022-09-28T04:34:08;26.33;;;16.13;;
35326;SDS011;21436;52.348;20.928;2022-09-28T04:36:45;29.48;;;15.43;;
35326;SDS011;21436;52.348;20.928;2022-09-28T04:39:16;29.27;;;15.95;;
35326;SDS011;21436;52.348;20.928;2022-09-28T04:41:52;27.20;;;14.75;;
35326;SDS011;21436;52.348;20.928;2022-09-28T04:44:24;26.20;;;16.05;;
35326;SDS011;21436;52.348;20.928;2022-09-28T04:47:03;27.45;;;16.02;;
35326;SDS011;21436;52.348;20.928;2022-09-28T04:49:55;29.73;;;15.73;;
35326;SDS011;21436;52.348;20.928;2022-09-28T04:52:34;31.25;;;17.48;;
35326;SDS011;21436;52.348;20.928;2022-09-28T04:55:04;31.38;;;17.65;;
35326;SDS011;21436;52.348;20.928;2022-09-28T04:57:34;32.58;;;16.60;;
35326;SDS011;21436;52.348;20.928;2022-09-28T05:00:02;30.15;;;18.10;;
35326;SDS011;21436;52.348;20.928;2022-09-28T05:02:35;31.02;;;17.88;;
35326;SDS011;21436;52.348;20.928;2022-09-28T05:05:29;33.75;;;19.60;;
35326;SDS011;21436;52.348;20.928;2022-09-28T05:08:16;33.97;;;19.55;;
35326;SDS011;21436;52.348;20.928;2022-09-28T05:10:45;34.92;;;19.17;;
35326;SDS011;21436;52.348;20.928;2022-09-28T05:13:14;34.58;;;18.98;;
35326;SDS011;21436;52.348;20.928;2022-09-28T05:15:45;34.40;;;19.45;;
35326;SDS011;21436;52.348;20.928;2022-09-28T05:18:13;34.60;;;19.45;;
35326;SDS011;21436;52.348;20.928;2022-09-28T05:20:50;36.95;;;20.67;;
35326;SDS011;21436;52.348;20.928;2022-09-28T05:23:18;39.90;;;21.23;;
35326;SDS011;21436;52.348;20.928;2022-09-28T05:25:46;32.72;;;20.17;;
35326;SDS011;21436;52.348;20.928;2022-09-28T05:28:19;32.35;;;19.88;;
35326;SDS011;21436;52.348;20.928;2022-09-28T05:31:09;35.97;;;19.83;;
35326;SDS011;21436;52.348;20.928;2022-09-28T05:33:57;32.00;;;18.85;;
35326;SDS011;21436;52.348;20.928;2022-09-28T05:36:26;34.00;;;19.15;;
35326;SDS011;21436;52.348;20.928;2022-09-28T05:38:55;30.90;;;18.48;;
35326;SDS011;21436;52.348;20.928;2022-09-28T05:41:24;32.70;;;19.33;;
35326;SDS011;21436;52.348;20.928;2022-09-28T05:43:53;28.92;;;16.95;;
35326;SDS011;21436;52.348;20.928;2022-09-28T05:46:22;38.80;;;18.33;;
35326;SDS011;21436;52.348;20.928;2022-09-28T05:48:52;28.70;;;17.52;;
35326;SDS011;21436;52.348;20.928;2022-09-28T05:51:22;28.70;;;18.23;;
35326;SDS011;21436;52.348;20.928;2022-09-28T05:53:53;33.20;;;18.05;;
35326;SDS011;21436;52.348;20.928;2022-09-28T05:56:24;31.63;;;18.77;;
35326;SDS011;21436;52.348;20.928;2022-09-28T05:58:54;32.03;;;18.63;;
35326;SDS011;21436;52.348;20.928;2022-09-28T06:01:28;35.47;;;18.45;;
35326;SDS011;21436;52.348;20.928;2022-09-28T06:04:03;33.35;;;18.40;;
35326;SDS011;21436;52.348;20.928;2022-09-28T06:06:31;35.22;;;20.45;;
35326;SDS011;21436;52.348;20.928;2022-09-28T06:09:02;32.33;;;19.10;;
35326;SDS011;21436;52.348;20.928;2022-09-28T06:11:31;35.38;;;20.48;;
35326;SDS011;21436;52.348;20.928;2022-09-28T06:14:06;31.60;;;18.85;;
35326;SDS011;21436;52.348;20.928;2022-09-28T06:16:34;28.30;;;17.50;;
35326;SDS011;21436;52.348;20.928;2022-09-28T06:19:10;29.88;;;18.85;;
35326;SDS011;21436;52.348;20.928;2022-09-28T06:21:54;30.95;;;18.83;;
35326;SDS011;21436;52.348;20.928;2022-09-28T06:24:26;29.20;;;17.95;;
35326;SDS011;21436;52.348;20.928;2022-09-28T06:26:54;33.53;;;18.83;;
35326;SDS011;21436;52.348;20.928;2022-09-28T06:29:23;29.00;;;18.42;;
35326;SDS011;21436;52.348;20.928;2022-09-28T06:31:52;30.27;;;18.60;;
35326;SDS011;21436;52.348;20.928;2022-09-28T06:34:20;30.30;;;17.50;;
35326;SDS011;21436;52.348;20.928;2022-09-28T06:36:50;31.23;;;18.50;;
35326;SDS011;21436;52.348;20.928;2022-09-28T06:39:18;27.58;;;16.88;;
35326;SDS011;21436;52.348;20.928;2022-09-28T06:41:49;26.27;;;16.85;;
35326;SDS011;21436;52.348;20.928;2022-09-28T06:44:20;27.73;;;17.23;;
35326;SDS011;21436;52.348;20.928;2022-09-28T06:47:08;27.88;;;17.98;;
35326;SDS011;21436;52.348;20.928;2022-09-28T06:50:04;28.25;;;16.92;;
35326;SDS011;21436;52.348;20.928;2022-09-28T06:53:06;25.25;;;17.00;;
35326;SDS011;21436;52.348;20.928;2022-09-28T06:55:49;28.20;;;16.30;;
35326;SDS011;21436;52.348;20.928;2022-09-28T06:58:19;25.70;;;16.30;;
35326;SDS011;21436;52.348;20.928;2022-09-28T07:00:50;25.38;;;16.20;;
35326;SDS011;21436;52.348;20.928;2022-09-28T07:03:20;23.02;;;15.63;;
35326;SDS011;21436;52.348;20.928;2022-09-28T07:06:10;23.55;;;16.13;;
35326;SDS011;21436;52.348;20.928;2022-09-28T07:09:03;23.45;;;15.65;;
35326;SDS011;21436;52.348;20.928;2022-09-28T07:12:11;24.75;;;15.43;;
35326;SDS011;21436;52.348;20.928;2022-09-28T07:15:07;23.42;;;15.77;;
35326;SDS011;21436;52.348;20.928;2022-09-28T07:17:36;25.00;;;15.95;;
35326;SDS011;21436;52.348;20.928;2022-09-28T07:20:26;23.90;;;15.55;;
35326;SDS011;21436;52.348;20.928;2022-09-28T07:22:58;25.02;;;14.52;;
35326;SDS011;21436;52.348;20.928;2022-09-28T07:26:05;22.27;;;14.50;;
35326;SDS011;21436;52.348;20.928;2022-09-28T07:28:51;23.17;;;14.68;;
35326;SDS011;21436;52.348;20.928;2022-09-28T07:31:33;23.85;;;14.75;;
35326;SDS011;21436;52.348;20.928;2022-09-28T07:34:20;22.60;;;15.18;;
35326;SDS011;21436;52.348;20.928;2022-09-28T07:36:58;22.23;;;14.40;;
35326;SDS011;21436;52.348;20.928;2022-09-28T07:39:27;25.10;;;15.30;;
35326;SDS011;21436;52.348;20.928;2022-09-28T07:41:56;20.55;;;14.38;;
35326;SDS011;21436;52.348;20.928;2022-09-28T07:44:31;21.05;;;14.07;;
35326;SDS011;21436;52.348;20.928;2022-09-28T07:47:02;22.67;;;15.10;;
35326;SDS011;21436;52.348;20.928;2022-09-28T07:49:54;23.17;;;14.77;;
35326;SDS011;21436;52.348;20.928;2022-09-28T07:52:41;21.98;;;14.15;;
35326;SDS011;21436;52.348;20.928;2022-09-28T07:55:23;20.40;;;14.27;;
35326;SDS011;21436;52.348;20.928;2022-09-28T07:58:15;20.17;;;13.88;;
35326;SDS011;21436;52.348;20.928;2022-09-28T08:01:02;20.90;;;14.82;;
35326;SDS011;21436;52.348;20.928;2022-09-28T08:03:35;21.42;;;14.52;;
35326;SDS011;21436;52.348;20.928;2022-09-28T08:06:05;26.40;;;15.57;;
35326;SDS011;21436;52.348;20.928;2022-09-28T08:08:38;21.10;;;15.75;;
35326;SDS011;21436;52.348;20.928;2022-09-28T08:11:14;24.08;;;16.05;;
35326;SDS011;21436;52.348;20.928;2022-09-28T08:14:02;22.35;;;14.60;;
35326;SDS011;21436;52.348;20.928;2022-09-28T08:16:49;20.67;;;15.32;;
35326;SDS011;21436;52.348;20.928;2022-09-28T08:19:34;22.55;;;15.32;;
35326;SDS011;21436;52.348;20.928;2022-09-28T08:22:20;22.95;;;14.77;;
35326;SDS011;21436;52.348;20.928;2022-09-28T08:24:52;19.30;;;15.00;;
35326;SDS011;21436;52.348;20.928;2022-09-28T08:27:20;18.50;;;15.27;;
35326;SDS011;21436;52.348;20.928;2022-09-28T08:29:49;20.48;;;13.82;;
35326;SDS011;21436;52.348;20.928;2022-09-28T08:32:36;18.77;;;13.15;;
35326;SDS011;21436;52.348;20.928;2022-09-28T08:35:24;18.45;;;12.55;;
35326;SDS011;21436;52.348;20.928;2022-09-28T08:38:11;16.88;;;11.75;;
35326;SDS011;21436;52.348;20.928;2022-09-28T08:47:05;14.90;;;11.90;;
35326;SDS011;21436;52.348;20.928;2022-09-28T08:50:23;14.98;;;10.80;;
35326;SDS011;21436;52.348;20.928;2022-09-28T08:53:11;14.70;;;10.98;;
35326;SDS011;21436;52.348;20.928;2022-09-28T08:59:21;15.30;;;10.88;;
35326;SDS011;21436;52.348;20.928;2022-09-28T09:02:01;12.63;;;10.13;;
35326;SDS011;21436;52.348;20.928;2022-09-28T09:04:33;13.38;;;10.65;;
35326;SDS011;21436;52.348;20.928;2022-09-28T09:19:15;11.98;;;8.82;;
35326;SDS011;21436;52.348;20.928;2022-09-28T09:22:14;10.85;;;8.73;;
35326;SDS011;21436;52.348;20.928;2022-09-28T09:24:54;10.50;;;7.20;;
35326;SDS011;21436;52.348;20.928;2022-09-28T09:30:14;10.88;;;7.88;;
35326;SDS011;21436;52.348;20.928;2022-09-28T09:36:36;11.15;;;7.32;;
35326;SDS011;21436;52.348;20.928;2022-09-28T09:40:07;8.35;;;6.25;;
35326;SDS011;21436;52.348;20.928;2022-09-28T09:49:21;7.60;;;5.60;;
35326;SDS011;21436;52.348;20.928;2022-09-28T09:51:58;9.27;;;5.65;;
35326;SDS011;21436;52.348;20.928;2022-09-28T09:57:26;5.70;;;4.57;;
35326;SDS011;21436;52.348;20.928;2022-09-28T10:00:11;10.07;;;4.65;;
35326;SDS011;21436;52.348;20.928;2022-09-28T10:02:46;10.27;;;4.50;;
35326;SDS011;21436;52.348;20.928;2022-09-28T10:05:30;6.20;;;3.90;;
35326;SDS011;21436;52.348;20.928;2022-09-28T10:10:35;4.60;;;4.00;;
35326;SDS011;21436;52.348;20.928;2022-09-28T10:13:09;5.00;;;3.92;;
35326;SDS011;21436;52.348;20.928;2022-09-28T10:15:38;5.60;;;3.83;;
35326;SDS011;21436;52.348;20.928;2022-09-28T10:18:15;6.18;;;4.28;;
35326;SDS011;21436;52.348;20.928;2022-09-28T10:21:04;6.85;;;3.72;;
35326;SDS011;21436;52.348;20.928;2022-09-28T10:24:02;8.25;;;3.85;;
35326;SDS011;21436;52.348;20.928;2022-09-28T10:26:36;6.18;;;3.70;;
35326;SDS011;21436;52.348;20.928;2022-09-28T10:29:16;6.30;;;3.50;;
35326;SDS011;21436;52.348;20.928;2022-09-28T10:31:49;4.45;;;3.10;;
35326;SDS011;21436;52.348;20.928;2022-09-28T10:34:24;5.47;;;3.53;;
35326;SDS011;21436;52.348;20.928;2022-09-28T10:37:03;4.93;;;3.53;;
35326;SDS011;21436;52.348;20.928;2022-09-28T10:39:54;4.85;;;3.55;;
35326;SDS011;21436;52.348;20.928;2022-09-28T10:42:26;4.65;;;3.58;;
35326;SDS011;21436;52.348;20.928;2022-09-28T10:45:01;6.53;;;3.50;;
35326;SDS011;21436;52.348;20.928;2022-09-28T10:47:46;5.72;;;3.30;;
35326;SDS011;21436;52.348;20.928;2022-09-28T10:50:21;4.57;;;3.53;;
35326;SDS011;21436;52.348;20.928;2022-09-28T10:53:10;4.45;;;3.50;;
35326;SDS011;21436;52.348;20.928;2022-09-28T10:56:21;5.25;;;3.17;;
35326;SDS011;21436;52.348;20.928;2022-09-28T10:58:57;3.92;;;3.10;;
35326;SDS011;21436;52.348;20.928;2022-09-28T11:01:42;8.13;;;3.80;;
35326;SDS011;21436;52.348;20.928;2022-09-28T11:04:13;8.63;;;3.33;;
35326;SDS011;21436;52.348;20.928;2022-09-28T11:06:49;2.80;;;2.50;;
35326;SDS011;21436;52.348;20.928;2022-09-28T11:12:05;5.45;;;2.95;;
35326;SDS011;21436;52.348;20.928;2022-09-28T11:14:36;5.30;;;2.85;;
35326;SDS011;21436;52.348;20.928;2022-09-28T11:19:54;4.32;;;2.97;;
35326;SDS011;21436;52.348;20.928;2022-09-28T11:22:43;7.80;;;2.97;;
35326;SDS011;21436;52.348;20.928;2022-09-28T11:25:19;5.47;;;3.25;;
35326;SDS011;21436;52.348;20.928;2022-09-28T11:33:25;5.63;;;2.80;;
35326;SDS011;21436;52.348;20.928;2022-09-28T11:39:02;4.40;;;2.45;;
35326;SDS011;21436;52.348;20.928;2022-09-28T11:44:47;7.35;;;2.75;;
35326;SDS011;21436;52.348;20.928;2022-09-28T11:55:39;5.68;;;2.80;;
35326;SDS011;21436;52.348;20.928;2022-09-28T11:58:22;7.80;;;2.72;;
35326;SDS011;21436;52.348;20.928;2022-09-28T12:01:03;5.43;;;2.97;;
35326;SDS011;21436;52.348;20.928;2022-09-28T12:04:18;4.35;;;2.13;;
35326;SDS011;21436;52.348;20.928;2022-09-28T12:06:52;3.55;;;2.70;;
35326;SDS011;21436;52.348;20.928;2022-09-28T12:12:18;2.60;;;2.10;;
35326;SDS011;21436;52.348;20.928;2022-09-28T12:14:54;5.40;;;2.33;;
35326;SDS011;21436;52.348;20.928;2022-09-28T12:17:26;5.70;;;2.47;;
35326;SDS011;21436;52.348;20.928;2022-09-28T12:25:43;4.20;;;1.85;;
35326;SDS011;21436;52.348;20.928;2022-09-28T12:28:17;3.72;;;2.30;;
35326;SDS011;21436;52.348;20.928;2022-09-28T12:30:52;5.60;;;2.28;;
35326;SDS011;21436;52.348;20.928;2022-09-28T12:33:21;3.15;;;2.20;;
35326;SDS011;21436;52.348;20.928;2022-09-28T12:44:55;2.85;;;2.13;;
35326;SDS011;21436;52.348;20.928;2022-09-28T12:59:20;3.35;;;1.80;;
35326;SDS011;21436;52.348;20.928;2022-09-28T13:04:44;4.72;;;2.00;;
35326;SDS011;21436;52.348;20.928;2022-09-28T13:13:38;3.95;;;2.38;;
35326;SDS011;21436;52.348;20.928;2022-09-28T13:16:35;3.92;;;2.05;;
35326;SDS011;21436;52.348;20.928;2022-09-28T13:19:19;3.63;;;2.10;;
35326;SDS011;21436;52.348;20.928;2022-09-28T13:21:56;4.13;;;2.10;;
35326;SDS011;21436;52.348;20.928;2022-09-28T13:24:36;4.10;;;2.40;;
35326;SDS011;21436;52.348;20.928;2022-09-28T13:27:07;7.50;;;2.60;;
35326;SDS011;21436;52.348;20.928;2022-09-28T13:29:40;5.15;;;2.72;;
35326;SDS011;21436;52.348;20.928;2022-09-28T13:32:09;5.57;;;2.60;;
35326;SDS011;21436;52.348;20.928;2022-09-28T13:34:39;8.57;;;2.65;;
35326;SDS011;21436;52.348;20.928;2022-09-28T13:39:46;5.03;;;2.38;;
35326;SDS011;21436;52.348;20.928;2022-09-28T13:47:54;7.18;;;2.30;;
35326;SDS011;21436;52.348;20.928;2022-09-28T13:55:30;7.00;;;2.72;;
35326;SDS011;21436;52.348;20.928;2022-09-28T14:00:52;3.72;;;2.55;;
35326;SDS011;21436;52.348;20.928;2022-09-28T14:06:22;5.57;;;2.60;;
35326;SDS011;21436;52.348;20.928;2022-09-28T14:09:05;5.43;;;2.50;;
35326;SDS011;21436;52.348;20.928;2022-09-28T14:20:01;3.85;;;3.00;;
35326;SDS011;21436;52.348;20.928;2022-09-28T14:25:45;9.88;;;2.72;;
35326;SDS011;21436;52.348;20.928;2022-09-28T14:28:35;4.57;;;2.85;;
35326;SDS011;21436;52.348;20.928;2022-09-28T14:31:13;5.28;;;3.08;;
35326;SDS011;21436;52.348;20.928;2022-09-28T14:33:51;8.20;;;2.95;;
35326;SDS011;21436;52.348;20.928;2022-09-28T14:36:46;5.13;;;2.70;;
35326;SDS011;21436;52.348;20.928;2022-09-28T14:39:33;8.73;;;3.05;;
35326;SDS011;21436;52.348;20.928;2022-09-28T14:42:39;6.45;;;3.08;;
35326;SDS011;21436;52.348;20.928;2022-09-28T14:47:43;9.18;;;3.80;;
35326;SDS011;21436;52.348;20.928;2022-09-28T14:50:30;7.05;;;2.97;;
35326;SDS011;21436;52.348;20.928;2022-09-28T14:53:04;4.85;;;3.08;;
35326;SDS011;21436;52.348;20.928;2022-09-28T14:55:53;7.95;;;2.97;;
35326;SDS011;21436;52.348;20.928;2022-09-28T14:58:25;5.20;;;2.70;;
35326;SDS011;21436;52.348;20.928;2022-09-28T15:01:00;6.82;;;3.03;;
35326;SDS011;21436;52.348;20.928;2022-09-28T15:03:31;7.28;;;2.78;;
35326;SDS011;21436;52.348;20.928;2022-09-28T15:06:00;8.50;;;2.97;;
35326;SDS011;21436;52.348;20.928;2022-09-28T15:08:36;6.97;;;3.05;;
35326;SDS011;21436;52.348;20.928;2022-09-28T15:11:08;4.93;;;3.45;;
35326;SDS011;21436;52.348;20.928;2022-09-28T15:13:41;4.10;;;3.70;;
35326;SDS011;21436;52.348;20.928;2022-09-28T15:16:11;6.10;;;3.47;;
35326;SDS011;21436;52.348;20.928;2022-09-28T15:21:51;13.35;;;4.28;;
35326;SDS011;21436;52.348;20.928;2022-09-28T15:24:27;6.10;;;4.00;;
35326;SDS011;21436;52.348;20.928;2022-09-28T15:27:00;10.27;;;4.07;;
35326;SDS011;21436;52.348;20.928;2022-09-28T15:29:29;13.95;;;4.18;;
35326;SDS011;21436;52.348;20.928;2022-09-28T15:32:00;8.50;;;3.95;;
35326;SDS011;21436;52.348;20.928;2022-09-28T15:34:35;12.02;;;4.55;;
35326;SDS011;21436;52.348;20.928;2022-09-28T15:37:23;6.95;;;3.85;;
35326;SDS011;21436;52.348;20.928;2022-09-28T15:39:55;4.20;;;3.08;;
35326;SDS011;21436;52.348;20.928;2022-09-28T15:42:24;4.28;;;3.53;;
35326;SDS011;21436;52.348;20.928;2022-09-28T15:47:49;6.07;;;4.30;;
35326;SDS011;21436;52.348;20.928;2022-09-28T15:52:58;9.48;;;5.55;;
35326;SDS011;21436;52.348;20.928;2022-09-28T15:55:34;15.07;;;11.30;;
35326;SDS011;21436;52.348;20.928;2022-09-28T15:58:18;8.73;;;6.80;;
35326;SDS011;21436;52.348;20.928;2022-09-28T16:07:28;18.70;;;4.18;;
35326;SDS011;21436;52.348;20.928;2022-09-28T16:12:43;9.55;;;3.58;;
35326;SDS011;21436;52.348;20.928;2022-09-28T16:15:17;8.60;;;3.88;;
35326;SDS011;21436;52.348;20.928;2022-09-28T16:17:48;10.20;;;4.18;;
35326;SDS011;21436;52.348;20.928;2022-09-28T16:20:27;11.32;;;3.83;;
35326;SDS011;21436;52.348;20.928;2022-09-28T16:23:23;9.02;;;4.45;;
35326;SDS011;21436;52.348;20.928;2022-09-28T16:31:43;4.85;;;3.47;;
35326;SDS011;21436;52.348;20.928;2022-09-28T16:33:55;5.28;;;3.30;;
35326;SDS011;21436;52.348;20.928;2022-09-28T16:36:27;9.40;;;3.95;;
35326;SDS011;21436;52.348;20.928;2022-09-28T16:39:05;5.00;;;3.65;;
35326;SDS011;21436;52.348;20.928;2022-09-28T16:41:34;9.95;;;3.35;;
35326;SDS011;21436;52.348;20.928;2022-09-28T16:44:07;5.85;;;3.97;;
35326;SDS011;21436;52.348;20.928;2022-09-28T16:46:42;7.82;;;4.13;;
35326;SDS011;21436;52.348;20.928;2022-09-28T16:49:11;7.53;;;4.78;;
35326;SDS011;21436;52.348;20.928;2022-09-28T16:51:45;14.27;;;7.72;;
35326;SDS011;21436;52.348;20.928;2022-09-28T16:54:16;9.65;;;6.60;;
35326;SDS011;21436;52.348;20.928;2022-09-28T16:57:04;10.43;;;5.90;;
35326;SDS011;21436;52.348;20.928;2022-09-28T16:59:33;9.98;;;6.03;;
35326;SDS011;21436;52.348;20.928;2022-09-28T17:02:17;6.70;;;5.18;;
35326;SDS011;21436;52.348;20.928;2022-09-28T17:05:07;9.77;;;5.07;;
35326;SDS011;21436;52.348;20.928;2022-09-28T17:07:38;10.65;;;6.13;;
35326;SDS011;21436;52.348;20.928;2022-09-28T17:12:44;12.55;;;6.20;;
35326;SDS011;21436;52.348;20.928;2022-09-28T17:15:13;10.70;;;5.38;;
35326;SDS011;21436;52.348;20.928;2022-09-28T17:17:45;25.02;;;21.25;;
35326;SDS011;21436;52.348;20.928;2022-09-28T17:20:19;13.98;;;9.63;;
35326;SDS011;21436;52.348;20.928;2022-09-28T17:22:50;12.77;;;5.32;;
35326;SDS011;21436;52.348;20.928;2022-09-28T17:25:18;15.18;;;6.28;;
35326;SDS011;21436;52.348;20.928;2022-09-28T17:27:48;9.20;;;5.30;;
35326;SDS011;21436;52.348;20.928;2022-09-28T17:30:17;10.50;;;7.07;;
35326;SDS011;21436;52.348;20.928;2022-09-28T17:32:51;9.15;;;6.57;;
35326;SDS011;21436;52.348;20.928;2022-09-28T17:35:19;11.27;;;6.90;;
35326;SDS011;21436;52.348;20.928;2022-09-28T17:37:52;12.57;;;6.43;;
35326;SDS011;21436;52.348;20.928;2022-09-28T17:40:25;10.23;;;7.22;;
35326;SDS011;21436;52.348;20.928;2022-09-28T17:42:55;12.98;;;7.78;;
35326;SDS011;21436;52.348;20.928;2022-09-28T17:45:25;11.40;;;6.43;;
35326;SDS011;21436;52.348;20.928;2022-09-28T17:47:54;6.85;;;5.50;;
35326;SDS011;21436;52.348;20.928;2022-09-28T17:50:30;8.60;;;5.88;;
35326;SDS011;21436;52.348;20.928;2022-09-28T17:53:01;11.45;;;6.32;;
35326;SDS011;21436;52.348;20.928;2022-09-28T17:55:33;11.13;;;6.35;;
35326;SDS011;21436;52.348;20.928;2022-09-28T18:00:47;13.70;;;7.97;;
35326;SDS011;21436;52.348;20.928;2022-09-28T18:03:17;14.52;;;7.95;;
35326;SDS011;21436;52.348;20.928;2022-09-28T18:05:47;11.77;;;8.27;;
35326;SDS011;21436;52.348;20.928;2022-09-28T18:08:19;14.02;;;8.02;;
35326;SDS011;21436;52.348;20.928;2022-09-28T18:10:48;15.65;;;8.43;;
35326;SDS011;21436;52.348;20.928;2022-09-28T18:13:16;16.00;;;7.72;;
35326;SDS011;21436;52.348;20.928;2022-09-28T18:15:45;11.60;;;6.97;;
35326;SDS011;21436;52.348;20.928;2022-09-28T18:18:13;11.75;;;6.68;;
35326;SDS011;21436;52.348;20.928;2022-09-28T18:20:41;10.32;;;6.20;;
35326;SDS011;21436;52.348;20.928;2022-09-28T18:23:10;11.90;;;7.45;;
35326;SDS011;21436;52.348;20.928;2022-09-28T18:25:38;10.38;;;7.55;;
35326;SDS011;21436;52.348;20.928;2022-09-28T18:28:07;11.85;;;7.78;;
35326;SDS011;21436;52.348;20.928;2022-09-28T18:30:40;14.15;;;8.43;;
35326;SDS011;21436;52.348;20.928;2022-09-28T18:33:10;12.93;;;9.00;;
35326;SDS011;21436;52.348;20.928;2022-09-28T18:35:40;15.95;;;9.75;;
35326;SDS011;21436;52.348;20.928;2022-09-28T18:38:08;15.90;;;10.60;;
35326;SDS011;21436;52.348;20.928;2022-09-28T18:40:36;16.75;;;10.13;;
35326;SDS011;21436;52.348;20.928;2022-09-28T18:43:05;16.08;;;10.50;;
35326;SDS011;21436;52.348;20.928;2022-09-28T18:45:34;16.85;;;10.38;;
35326;SDS011;21436;52.348;20.928;2022-09-28T18:48:03;17.95;;;10.35;;